Time;durP1;ratioP1;P1;durP2;ratioP2;P2;SDS_P1;SDS_P2;PMS_P1;PMS_P2;Temp;Humidity;BMP_temperature;BMP_pressure;BME280_temperature;BME280_humidity;BME280_pressure;Samples;Min_cycle;Max_cycle;Signal;HPM_P1;HPM_P2
2022/12/31 00:00:24;;;;;;;;;65.00;49.60;;;;;7.12;56.83;98843.34;6162978;28;96772;-64
2022/12/31 00:03:27;;;;;;;;;67.00;53.00;;;;;7.09;56.38;98846.41;6186133;28;97348;-64
2022/12/31 00:06:33;;;;;;;;;62.80;50.00;;;;;7.02;56.20;98843.72;6186027;28;96326;-64
2022/12/31 00:09:37;;;;;;;;;65.60;51.60;;;;;6.85;56.09;98829.84;6186353;28;96234;-64
2022/12/31 00:12:41;;;;;;;;;67.40;53.00;;;;;6.94;56.46;98843.88;6186215;28;96735;-64
2022/12/31 00:15:44;;;;;;;;;65.00;51.00;;;;;6.92;56.23;98845.97;6186166;28;96783;-64
2022/12/31 00:18:49;;;;;;;;;67.00;52.00;;;;;6.88;56.49;98847.38;6186345;28;96146;-64
2022/12/31 00:21:52;;;;;;;;;66.60;51.00;;;;;6.75;57.24;98852.66;6185722;28;96392;-64
2022/12/31 00:24:58;;;;;;;;;68.80;53.00;;;;;6.81;57.04;98857.22;6186001;28;96305;-64
2022/12/31 00:28:02;;;;;;;;;70.00;54.40;;;;;6.75;57.11;98858.00;6183938;28;98320;-63
2022/12/31 00:31:08;;;;;;;;;68.60;52.60;;;;;6.63;57.46;98846.22;6185529;28;96238;-63
2022/12/31 00:34:12;;;;;;;;;66.00;52.00;;;;;6.60;56.96;98847.41;6185995;28;96344;-63
2022/12/31 00:37:15;;;;;;;;;69.00;54.00;;;;;6.59;57.15;98834.25;6185493;28;96222;-63
2022/12/31 00:40:20;;;;;;;;;68.50;53.00;;;;;6.55;56.54;98831.13;6185160;28;96231;-63
2022/12/31 00:43:23;;;;;;;;;69.40;55.20;;;;;6.59;56.59;98844.97;6185576;28;96282;-64
2022/12/31 00:46:27;;;;;;;;;68.50;53.00;;;;;6.58;56.46;98854.00;6185997;28;96281;-63
2022/12/31 00:49:30;;;;;;;;;67.20;52.60;;;;;6.58;56.76;98851.34;6173875;28;96515;-64
2022/12/31 00:52:34;;;;;;;;;66.00;51.75;;;;;6.59;56.59;98856.50;6169971;28;96260;-63
2022/12/31 00:55:38;;;;;;;;;66.80;52.80;;;;;6.63;56.96;98857.75;6169138;28;96400;-63
2022/12/31 00:58:42;;;;;;;;;67.00;52.40;;;;;6.64;57.03;98848.72;6173916;28;96944;-63
2022/12/31 01:01:46;;;;;;;;;64.00;51.00;;;;;6.65;57.11;98822.72;6160991;27;98890;-63
2022/12/31 01:04:49;;;;;;;;;67.00;52.00;;;;;6.78;57.20;98844.25;6174414;28;96856;-63
2022/12/31 01:07:52;;;;;;;;;68.40;53.00;;;;;6.78;57.33;98836.19;6183939;28;96420;-63
2022/12/31 01:14:19;;;;;;;;;64.20;50.80;;;;;6.84;56.49;98822.81;6184930;28;96288;-64
2022/12/31 01:17:22;;;;;;;;;68.00;52.40;;;;;6.85;56.80;98818.28;6183802;28;97547;-63
2022/12/31 01:20:26;;;;;;;;;67.60;51.40;;;;;6.87;56.63;98830.47;6184321;28;96262;-64
2022/12/31 01:23:29;;;;;;;;;66.60;51.80;;;;;6.87;56.46;98821.59;6184502;28;96307;-64
2022/12/31 01:26:34;;;;;;;;;65.00;51.00;;;;;6.81;56.43;98811.69;6183110;28;96937;-63
2022/12/31 01:29:38;;;;;;;;;64.50;51.00;;;;;6.87;56.46;98821.59;6183393;28;96921;-63
2022/12/31 01:32:41;;;;;;;;;66.60;51.00;;;;;6.88;56.29;98821.41;6183030;28;96491;-63
2022/12/31 01:35:44;;;;;;;;;66.40;50.80;;;;;6.88;56.66;98815.22;6183194;28;96597;-63
2022/12/31 01:38:50;;;;;;;;;65.20;51.60;;;;;6.78;56.14;98801.38;6199513;28;96887;-63
2022/12/31 01:41:55;;;;;;;;;63.40;51.00;;;;;6.90;56.78;98810.47;6184719;28;96378;-63
2022/12/31 01:44:59;;;;;;;;;65.00;51.20;;;;;6.92;56.20;98811.94;6184758;28;96259;-63
2022/12/31 01:48:02;;;;;;;;;64.00;49.33;;;;;6.95;56.61;98813.38;6184791;28;96258;-63
2022/12/31 01:51:09;;;;;;;;;62.25;48.00;;;;;6.97;56.21;98803.31;6168094;27;98608;-64
2022/12/31 01:54:18;;;;;;;;;67.00;50.60;;;;;6.99;56.42;98811.16;6176067;27;96584;-63
2022/12/31 01:57:25;;;;;;;;;66.80;52.80;;;;;6.97;56.43;98822.88;6159715;28;98328;-63
2022/12/31 02:00:28;;;;;;;;;69.50;52.75;;;;;7.04;56.45;98820.22;6159928;28;96319;-63
2022/12/31 02:03:32;;;;;;;;;64.00;51.00;;;;;7.05;56.10;98832.59;6159872;28;96921;-64
2022/12/31 02:06:41;;;;;;;;;68.20;52.60;;;;;7.10;56.37;98818.59;6160197;28;96273;-63
2022/12/31 02:09:44;;;;;;;;;63.00;50.80;;;;;7.14;56.50;98817.16;6160063;28;96237;-64
2022/12/31 02:12:49;;;;;;;;;61.60;48.00;;;;;7.16;56.26;98815.13;6159782;28;96196;-64
2022/12/31 02:16:00;;;;;;;;;66.50;52.00;;;;;7.16;56.42;98818.63;6173925;28;96910;-64
2022/12/31 02:19:23;;;;;;;;;69.60;52.00;;;;;7.22;56.32;98828.56;6186451;27;96653;-64
2022/12/31 02:22:47;;;;;;;;;65.60;52.00;;;;;7.24;56.13;98833.69;6141713;28;96584;-64
2022/12/31 02:26:25;;;;;;;;;67.40;51.40;;;;;7.26;56.12;98831.66;6159538;28;96319;-64
2022/12/31 02:30:04;;;;;;;;;72.60;54.20;;;;;7.28;56.18;98834.97;6159571;28;96230;-63
2022/12/31 02:33:14;;;;;;;;;67.40;52.00;;;;;7.30;56.21;98835.56;6159693;28;96276;-64
2022/12/31 02:36:21;;;;;;;;;65.20;51.00;;;;;7.32;56.28;98823.63;6159769;28;97030;-64
2022/12/31 02:39:25;;;;;;;;;62.20;49.40;;;;;7.27;56.05;98814.53;6158862;28;97098;-64
2022/12/31 02:42:28;;;;;;;;;66.20;52.20;;;;;7.44;55.98;98821.16;6159436;28;96197;-64
2022/12/31 02:45:37;;;;;;;;;70.00;53.00;;;;;7.49;56.25;98816.03;6159281;28;96527;-64
2022/12/31 02:48:46;;;;;;;;;63.67;48.00;;;;;7.52;56.24;98821.00;6159676;28;97022;-64
2022/12/31 02:51:59;;;;;;;;;63.80;50.00;;;;;7.60;56.23;98831.53;6159424;28;96271;-64
2022/12/31 02:55:11;;;;;;;;;64.40;51.00;;;;;7.62;56.27;98820.59;6159475;28;96309;-63
2022/12/31 02:58:20;;;;;;;;;65.40;51.60;;;;;7.66;55.97;98821.84;6159533;28;96260;-63
2022/12/31 03:04:55;;;;;;;;;67.00;52.60;;;;;7.68;56.39;98825.13;6159387;28;96654;-64
2022/12/31 03:07:58;;;;;;;;;66.25;51.75;;;;;7.60;56.29;98812.75;6158875;28;96279;-64
2022/12/31 03:12:44;;;;;;;;;67.00;51.00;;;;;7.77;56.28;98835.44;6158829;27;96656;-64
2022/12/31 03:14:24;;;;;;;;;67.00;51.00;;;;;7.84;56.10;98824.72;6158530;28;96331;-61
2022/12/31 03:17:29;;;;;;;;;63.80;50.80;;;;;7.85;56.15;98818.34;6159402;28;97157;-61
2022/12/31 03:27:17;;;;;;;;;66.40;52.00;;;;;7.87;56.54;98802.03;6187254;28;96255;-60
2022/12/31 03:30:22;;;;;;;;;63.20;49.40;;;;;7.97;56.34;98792.50;6186850;28;96398;-60
2022/12/31 03:33:30;;;;;;;;;46.80;36.00;;;;;8.21;58.30;98794.56;6187170;28;97124;-60
2022/12/31 03:36:34;;;;;;;;;39.20;33.40;;;;;8.61;58.74;98776.53;6187522;28;96283;-60
2022/12/31 03:39:37;;;;;;;;;37.40;32.00;;;;;8.98;58.07;98776.81;6186750;28;96323;-60
2022/12/31 03:42:41;;;;;;;;;38.00;32.40;;;;;9.30;57.92;98775.78;6187310;28;96413;-60
2022/12/31 03:45:44;;;;;;;;;36.25;31.75;;;;;9.57;57.40;98765.69;6187035;28;96448;-60
2022/12/31 03:48:49;;;;;;;;;37.00;32.00;;;;;9.82;56.69;98761.13;6187068;28;96202;-60
2022/12/31 03:51:52;;;;;;;;;34.50;30.50;;;;;10.05;56.46;98786.63;6187378;28;96568;-60
2022/12/31 03:54:55;;;;;;;;;40.50;33.50;;;;;10.22;55.50;98803.91;6187136;28;96593;-60
2022/12/31 03:57:59;;;;;;;;;27.00;23.40;;;;;10.30;56.42;98800.94;6186846;28;96280;-61
2022/12/31 04:01:02;;;;;;;;;29.00;26.80;;;;;10.54;56.35;98818.94;6201230;28;97027;-60
2022/12/31 04:04:07;;;;;;;;;48.00;39.00;;;;;10.62;54.20;98831.28;6186941;28;96347;-61
2022/12/31 04:07:11;;;;;;;;;56.40;45.20;;;;;10.57;53.19;98829.28;6185783;28;96209;-60
2022/12/31 04:10:16;;;;;;;;;57.25;45.00;;;;;10.46;52.54;98837.28;6187348;28;96510;-60
2022/12/31 04:13:20;;;;;;;;;57.80;46.00;;;;;10.22;51.89;98828.97;6187044;28;97629;-60
2022/12/31 04:16:23;;;;;;;;;60.00;47.80;;;;;10.01;51.54;98837.44;6186841;28;96391;-60
2022/12/31 04:19:28;;;;;;;;;61.60;48.20;;;;;9.76;51.41;98831.19;6186230;28;96317;-60
2022/12/31 04:22:32;;;;;;;;;61.00;48.00;;;;;9.61;51.44;98830.66;6186643;28;96248;-60
2022/12/31 04:25:35;;;;;;;;;61.00;48.00;;;;;9.47;51.96;98829.94;6184517;28;96734;-60
2022/12/31 04:28:38;;;;;;;;;48.60;39.40;;;;;9.45;53.73;98827.44;6186288;28;96202;-60
2022/12/31 04:31:42;;;;;;;;;54.80;43.20;;;;;9.55;54.13;98824.28;6186472;28;96179;-60
2022/12/31 04:34:47;;;;;;;;;49.00;39.40;;;;;9.63;54.16;98824.00;6186500;28;96281;-61
2022/12/31 04:37:50;;;;;;;;;53.00;42.00;;;;;9.70;54.11;98824.81;6186157;28;96745;-60
2022/12/31 04:44:14;;;;;;;;;38.80;33.40;;;;;10.01;54.79;98832.03;6171931;28;96492;-60
2022/12/31 04:47:17;;;;;;;;;26.00;23.40;;;;;10.22;56.09;98834.38;6170285;28;96381;-60
2022/12/31 04:50:27;;;;;;;;;25.00;23.00;;;;;10.41;56.18;98836.06;6173145;28;96295;-60
2022/12/31 04:53:31;;;;;;;;;23.00;23.00;;;;;10.57;55.78;98833.84;6164887;28;96323;-61
2022/12/31 04:56:35;;;;;;;;;21.00;20.60;;;;;10.70;55.63;98845.31;6186253;28;96896;-60
2022/12/31 04:59:38;;;;;;;;;19.00;17.80;;;;;10.82;56.01;98845.41;6185718;28;96571;-60
2022/12/31 05:02:42;;;;;;;;;20.00;19.00;;;;;10.95;56.20;98864.13;6186058;28;96786;-60
2022/12/31 05:05:48;;;;;;;;;16.00;15.00;;;;;11.06;56.35;98866.09;6186099;28;96352;-60
2022/12/31 05:08:52;;;;;;;;;17.00;15.00;;;;;11.17;56.48;98870.72;6186555;28;96330;-60
2022/12/31 05:11:55;;;;;;;;;15.00;14.00;;;;;11.13;57.06;98869.53;6186430;28;96360;-60
2022/12/31 05:14:59;;;;;;;;;16.00;15.00;;;;;11.34;56.64;98881.72;6186755;28;96316;-62
2022/12/31 05:18:02;;;;;;;;;20.60;17.60;;;;;11.49;56.63;98873.22;6186266;28;96862;-60
2022/12/31 05:21:07;;;;;;;;;17.67;17.00;;;;;11.57;56.30;98879.16;6186567;28;96327;-60
2022/12/31 05:24:10;;;;;;;;;17.00;15.75;;;;;11.65;56.76;98870.72;6186301;28;96463;-60
2022/12/31 05:27:13;;;;;;;;;16.00;14.00;;;;;11.73;56.96;98880.41;6186403;28;96264;-61
2022/12/31 05:30:17;;;;;;;;;13.60;11.00;;;;;11.86;57.27;98879.41;6186120;28;96228;-60
2022/12/31 05:33:21;;;;;;;;;11.00;10.80;;;;;12.11;56.52;98871.97;6185991;28;96894;-60
2022/12/31 05:36:26;;;;;;;;;13.00;12.00;;;;;12.12;56.77;98862.78;6185619;28;96515;-60
2022/12/31 05:39:29;;;;;;;;;7.00;7.00;;;;;12.19;57.18;98882.44;6179104;28;96243;-60
2022/12/31 05:42:33;;;;;;;;;10.00;9.00;;;;;12.33;57.21;98867.63;6164467;28;96114;-61
2022/12/31 05:45:36;;;;;;;;;10.00;9.40;;;;;12.43;56.53;98850.84;6161105;28;96458;-60
2022/12/31 05:48:40;;;;;;;;;8.00;7.40;;;;;12.67;56.27;98865.19;6161716;28;96852;-61
2022/12/31 05:51:45;;;;;;;;;10.40;9.80;;;;;12.77;56.23;98868.94;6170686;28;96244;-60
2022/12/31 05:54:48;;;;;;;;;7.60;7.00;;;;;12.90;56.04;98863.28;6168503;28;96323;-60
2022/12/31 05:57:51;;;;;;;;;9.40;9.00;;;;;12.94;56.15;98863.66;6161550;28;96350;-60
2022/12/31 06:00:55;;;;;;;;;5.20;5.20;;;;;13.06;56.02;98858.19;6168748;28;96374;-60
2022/12/31 06:03:58;;;;;;;;;5.00;5.00;;;;;13.18;55.68;98859.88;6185690;28;96372;-60
2022/12/31 06:07:03;;;;;;;;;9.00;8.40;;;;;13.21;55.85;98850.44;6185973;28;96262;-60
2022/12/31 06:10:07;;;;;;;;;5.00;5.00;;;;;13.26;55.78;98859.50;6174522;28;96294;-60
2022/12/31 06:13:10;;;;;;;;;8.00;8.00;;;;;13.35;55.80;98866.16;6146675;28;97616;-60
2022/12/31 06:16:14;;;;;;;;;5.00;5.00;;;;;13.43;55.56;98865.81;6161397;28;96263;-60
2022/12/31 06:19:17;;;;;;;;;7.00;6.40;;;;;13.54;55.59;98874.09;6166039;28;96329;-61
2022/12/31 06:22:22;;;;;;;;;5.50;5.00;;;;;13.57;55.55;98879.88;6185645;28;96263;-60
2022/12/31 06:25:25;;;;;;;;;6.60;6.00;;;;;13.58;55.45;98896.97;6184941;28;96256;-60
2022/12/31 06:28:29;;;;;;;;;5.00;5.00;;;;;13.72;55.46;98892.91;6185195;28;97166;-60
2022/12/31 06:31:32;;;;;;;;;5.00;5.00;;;;;13.70;55.62;98898.56;6183684;28;96314;-60
2022/12/31 06:34:36;;;;;;;;;6.00;6.00;;;;;13.79;55.31;98899.00;6178254;28;96834;-60
2022/12/31 06:37:41;;;;;;;;;6.00;6.00;;;;;13.79;55.54;98899.00;6170434;28;96463;-61
2022/12/31 06:40:44;;;;;;;;;6.00;5.00;;;;;13.78;55.83;98903.56;6183210;28;96317;-61
2022/12/31 06:43:47;;;;;;;;;5.00;4.60;;;;;13.81;55.64;98913.97;6160280;28;96398;-61
2022/12/31 06:46:51;;;;;;;;;5.00;5.00;;;;;13.88;55.50;98917.31;6175497;28;96341;-61
2022/12/31 06:49:54;;;;;;;;;6.00;6.00;;;;;13.86;55.62;98907.81;6160571;28;96297;-61
2022/12/31 06:52:59;;;;;;;;;7.40;7.00;;;;;13.94;55.44;98901.16;6160482;28;96369;-61
2022/12/31 06:56:05;;;;;;;;;5.80;5.20;;;;;14.01;55.24;98908.09;6158800;28;96378;-60
2022/12/31 06:59:24;;;;;;;;;7.00;7.00;;;;;14.03;55.27;98915.97;6160026;28;96532;-61
2022/12/31 07:02:48;;;;;;;;;6.00;5.40;;;;;14.09;55.06;98923.13;6160159;28;96408;-61
2022/12/31 07:05:58;;;;;;;;;5.00;5.00;;;;;14.11;55.19;98926.44;6158762;28;96332;-60
2022/12/31 07:09:12;;;;;;;;;6.00;5.20;;;;;14.29;54.83;98927.03;6158606;28;96193;-61
2022/12/31 07:12:27;;;;;;;;;6.40;6.00;;;;;14.32;54.65;98904.00;6158341;28;96458;-61
2022/12/31 07:15:47;;;;;;;;;5.00;5.00;;;;;14.59;54.18;98920.50;6159589;28;96527;-61
2022/12/31 07:18:59;;;;;;;;;5.00;5.00;;;;;14.80;53.63;98927.09;6159461;28;96545;-61
2022/12/31 07:22:03;;;;;;;;;4.60;4.60;;;;;14.98;53.16;98916.78;6159931;28;96239;-61
2022/12/31 07:25:13;;;;;;;;;4.00;4.00;;;;;15.49;51.64;98918.28;6173637;28;96317;-61
2022/12/31 07:28:30;;;;;;;;;8.00;8.00;;;;;16.13;49.53;98923.09;6168426;28;96275;-62
2022/12/31 07:31:50;;;;;;;;;4.00;4.00;;;;;16.82;48.18;98913.13;6166264;28;96235;-61
2022/12/31 07:35:04;;;;;;;;;3.75;3.75;;;;;17.84;46.30;98939.88;6159505;28;96317;-61
2022/12/31 07:38:18;;;;;;;;;6.00;5.00;;;;;17.92;44.76;98944.81;6158537;28;96811;-61
2022/12/31 07:41:38;;;;;;;;;6.00;5.20;;;;;17.99;44.89;98937.19;6159029;28;96437;-61
2022/12/31 07:44:52;;;;;;;;;5.00;5.00;;;;;18.07;44.10;98935.88;6159081;28;96307;-60
2022/12/31 07:47:56;;;;;;;;;5.00;5.00;;;;;18.30;43.80;98931.81;6172460;28;96684;-61
2022/12/31 07:51:05;;;;;;;;;3.60;3.60;;;;;19.02;42.29;98934.31;6173052;27;98528;-61
2022/12/31 07:54:09;;;;;;;;;5.00;4.00;;;;;19.33;41.23;98924.13;6180804;28;96503;-62
2022/12/31 07:57:20;;;;;;;;;2.60;2.20;;;;;19.25;41.20;98933.75;6180605;28;96324;-60
2022/12/31 08:00:24;;;;;;;;;6.00;5.00;;;;;19.29;41.10;98944.94;6178450;28;96222;-60
2022/12/31 08:03:44;;;;;;;;;4.00;3.60;;;;;19.45;40.78;98957.47;6181483;28;96227;-61
2022/12/31 08:06:58;;;;;;;;;3.00;3.00;;;;;19.66;40.33;98964.53;6167773;28;96255;-60
2022/12/31 08:10:08;;;;;;;;;5.00;4.60;;;;;19.45;41.02;98946.53;6176498;28;96490;-61
2022/12/31 08:13:21;;;;;;;;;3.00;3.00;;;;;19.97;40.28;98967.97;6182223;28;96332;-61
2022/12/31 08:16:25;;;;;;;;;5.20;4.60;;;;;21.45;38.11;98955.63;6186577;28;96400;-61
2022/12/31 08:19:30;;;;;;;;;4.50;4.00;;;;;23.04;35.07;98951.25;6184072;28;96838;-61
2022/12/31 08:22:56;;;;;;;;;3.40;3.00;;;;;24.36;32.22;98946.72;6179102;28;96737;-60
2022/12/31 08:26:12;;;;;;;;;3.00;3.00;;;;;25.54;29.90;98943.50;6183703;28;96991;-62
2022/12/31 08:29:31;;;;;;;;;3.00;3.00;;;;;26.59;29.56;98940.69;6182445;27;96513;-61
2022/12/31 08:32:43;;;;;;;;;3.60;3.60;;;;;27.35;27.81;98932.63;6185424;28;96439;-61
2022/12/31 08:36:00;;;;;;;;;3.00;3.00;;;;;28.48;26.02;98933.69;6168346;28;96235;-61
2022/12/31 08:39:16;;;;;;;;;3.00;3.00;;;;;29.08;25.31;98936.72;6171086;28;96251;-62
2022/12/31 08:42:30;;;;;;;;;3.00;2.80;;;;;29.63;25.30;98943.81;6177470;28;97576;-62
2022/12/31 08:45:38;;;;;;;;;3.00;3.00;;;;;29.36;24.96;98948.06;6175276;28;96173;-63
2022/12/31 08:48:43;;;;;;;;;4.00;4.00;;;;;28.19;26.38;98951.19;6183310;27;96660;-61
2022/12/31 08:51:47;;;;;;;;;4.00;4.00;;;;;26.86;27.84;98954.22;6179514;28;96976;-61
2022/12/31 08:54:51;;;;;;;;;4.00;4.00;;;;;25.94;28.86;98949.84;6182930;28;97248;-61
2022/12/31 08:58:07;;;;;;;;;5.20;4.80;;;;;25.33;30.38;98945.19;6180863;28;96352;-61
2022/12/31 09:01:20;;;;;;;;;3.50;3.50;;;;;25.11;30.67;98950.75;6185711;28;96405;-61
2022/12/31 09:04:38;;;;;;;;;2.40;2.40;;;;;24.33;31.54;98963.91;6172757;28;96341;-61
2022/12/31 09:07:49;;;;;;;;;4.60;4.60;;;;;23.60;32.86;98964.81;6184761;28;96438;-61
2022/12/31 09:11:00;;;;;;;;;4.00;4.00;;;;;22.59;34.42;98955.53;6186327;28;96382;-61
2022/12/31 09:14:21;;;;;;;;;4.25;4.00;;;;;22.15;35.33;98955.91;6186208;28;96318;-60
2022/12/31 09:17:36;;;;;;;;;5.20;4.80;;;;;21.47;36.69;98955.34;6184889;28;96409;-61
2022/12/31 09:20:40;;;;;;;;;6.00;4.80;;;;;21.01;37.72;98944.00;6173082;28;96362;-61
2022/12/31 09:23:46;;;;;;;;;8.00;6.60;;;;;20.69;38.17;98959.06;6178007;28;96832;-61
2022/12/31 09:27:01;;;;;;;;;4.00;4.00;;;;;20.59;38.84;98948.19;6182478;28;96275;-61
2022/12/31 09:30:07;;;;;;;;;4.60;4.40;;;;;20.94;38.65;98952.56;6182152;28;96844;-62
2022/12/31 09:33:19;;;;;;;;;6.00;6.00;;;;;21.80;36.97;98948.09;6185274;28;96387;-61
2022/12/31 09:36:30;;;;;;;;;4.80;4.00;;;;;21.58;37.16;98924.78;6178956;28;96512;-62
2022/12/31 09:39:40;;;;;;;;;5.60;5.00;;;;;21.09;38.05;98946.13;6183765;28;96685;-61
2022/12/31 09:43:07;;;;;;;;;4.00;4.00;;;;;21.03;38.50;98939.03;6179606;28;96297;-61
2022/12/31 09:47:10;;;;;;;;;5.00;5.00;;;;;22.01;37.10;98946.78;6173196;28;96417;-62
2022/12/31 09:50:51;;;;;;;;;5.40;5.40;;;;;23.14;34.62;98955.78;6163792;28;96292;-62
2022/12/31 09:54:09;;;;;;;;;3.40;3.40;;;;;24.05;33.13;98946.56;6185626;28;96427;-62
2022/12/31 09:57:29;;;;;;;;;2.20;2.20;;;;;24.68;32.43;98940.19;6184181;28;96676;-62
2022/12/31 10:00:42;;;;;;;;;5.00;4.00;;;;;25.22;31.22;98927.25;6185294;28;96266;-62
2022/12/31 10:04:10;;;;;;;;;6.00;6.00;;;;;25.70;30.63;98933.69;6185310;28;97481;-63
2022/12/31 10:07:35;;;;;;;;;2.00;2.00;;;;;25.96;30.01;98921.88;6184278;28;96356;-62
2022/12/31 10:10:49;;;;;;;;;4.00;3.75;;;;;26.91;29.59;98933.88;6183877;28;96771;-62
2022/12/31 10:14:14;;;;;;;;;4.60;4.40;;;;;27.50;28.31;98934.88;6185306;28;96856;-62
2022/12/31 10:17:29;;;;;;;;;4.00;4.00;;;;;28.12;28.01;98935.06;6180802;28;96243;-62
2022/12/31 10:20:50;;;;;;;;;5.50;5.25;;;;;28.32;26.76;98939.00;6179958;28;96315;-61
2022/12/31 10:24:13;;;;;;;;;4.00;3.00;;;;;28.27;26.71;98948.34;6178961;27;96818;-62
2022/12/31 10:27:39;;;;;;;;;4.25;3.25;;;;;27.83;27.61;98951.66;6179098;28;96907;-61
2022/12/31 10:30:54;;;;;;;;;3.00;3.00;;;;;26.08;29.46;98952.47;6179141;28;97702;-62
2022/12/31 10:34:13;;;;;;;;;6.00;5.40;;;;;25.40;30.91;98940.84;6184587;28;96415;-62
2022/12/31 10:37:19;;;;;;;;;3.00;3.00;;;;;24.98;31.39;98941.41;6183067;27;96855;-62
2022/12/31 10:40:46;;;;;;;;;4.00;4.00;;;;;24.55;32.18;98932.78;6184169;28;96538;-63
2022/12/31 10:44:33;;;;;;;;;4.60;4.00;;;;;24.54;32.67;98920.94;6184401;28;96248;-61
2022/12/31 10:48:27;;;;;;;;;5.80;5.80;;;;;23.63;34.08;98928.44;6188115;28;96274;-62
2022/12/31 10:52:04;;;;;;;;;5.00;5.00;;;;;23.03;35.46;98921.31;6117130;28;96640;-63
2022/12/31 10:55:44;;;;;;;;;4.00;3.00;;;;;22.76;35.56;98900.91;6123891;28;96586;-62
2022/12/31 10:59:27;;;;;;;;;4.75;4.75;;;;;22.88;35.99;98909.47;6132607;28;96313;-61
2022/12/31 11:03:03;;;;;;;;;4.00;3.20;;;;;22.81;35.70;98914.56;6092146;28;96275;-62
2022/12/31 11:06:44;;;;;;;;;5.00;5.00;;;;;22.15;36.82;98905.66;6118046;28;96822;-61
2022/12/31 11:10:20;;;;;;;;;4.00;4.00;;;;;21.93;37.76;98926.28;6112525;28;96214;-61
2022/12/31 11:13:51;;;;;;;;;4.80;4.20;;;;;21.70;37.75;98938.06;6121118;28;96750;-63
2022/12/31 11:17:21;;;;;;;;;6.00;6.00;;;;;21.05;39.49;98948.63;6119184;28;96293;-62
2022/12/31 11:20:54;;;;;;;;;3.75;3.75;;;;;20.59;40.19;98945.44;6119566;28;97318;-62
2022/12/31 11:24:10;;;;;;;;;6.00;5.00;;;;;20.54;40.52;98956.44;6176378;28;96366;-63
2022/12/31 11:27:35;;;;;;;;;3.40;3.40;;;;;20.57;40.32;98953.16;6177787;28;97297;-61
2022/12/31 11:30:51;;;;;;;;;6.00;5.60;;;;;20.19;41.15;98940.19;6164312;28;96434;-61
2022/12/31 11:34:11;;;;;;;;;3.80;3.20;;;;;19.90;42.32;98940.91;6171683;28;96350;-62
2022/12/31 11:37:29;;;;;;;;;7.00;6.40;;;;;19.62;42.64;98947.03;6171885;28;96355;-62
2022/12/31 11:40:41;;;;;;;;;6.75;6.75;;;;;19.20;43.65;98941.94;6161642;28;97499;-62
2022/12/31 11:43:55;;;;;;;;;4.00;4.00;;;;;19.02;44.14;98943.31;6170357;28;96560;-62
2022/12/31 11:47:12;;;;;;;;;6.00;6.00;;;;;18.93;44.27;98944.97;6182368;28;96639;-61
2022/12/31 11:50:28;;;;;;;;;5.40;5.00;;;;;18.83;44.90;98944.16;6170327;28;96710;-62
2022/12/31 11:53:48;;;;;;;;;6.40;5.00;;;;;18.82;44.95;98939.78;6186635;27;96900;-61
2022/12/31 11:57:00;;;;;;;;;5.00;5.00;;;;;18.71;45.16;98930.78;6165278;27;96493;-61
2022/12/31 12:00:15;;;;;;;;;5.75;5.00;;;;;18.50;45.64;98929.94;6160357;28;96796;-61
2022/12/31 12:03:18;;;;;;;;;5.60;5.00;;;;;18.39;47.00;98924.72;6171735;27;96721;-61
2022/12/31 12:06:27;;;;;;;;;6.40;6.00;;;;;18.17;47.90;98914.06;6178624;27;97529;-61
2022/12/31 12:09:34;;;;;;;;;6.00;6.00;;;;;18.16;47.84;98909.69;6188476;27;96474;-62
2022/12/31 12:12:42;;;;;;;;;5.00;5.00;;;;;18.15;47.71;98908.03;6186896;27;97127;-60
2022/12/31 12:15:48;;;;;;;;;6.40;6.40;;;;;18.01;47.94;98909.66;6234502;27;96267;-62
2022/12/31 12:19:03;;;;;;;;;5.00;5.00;;;;;18.59;46.54;98916.56;6191110;27;96394;-61
2022/12/31 12:22:13;;;;;;;;;7.00;6.80;;;;;19.32;44.63;98906.91;6227550;27;96446;-62
2022/12/31 12:25:20;;;;;;;;;7.00;6.00;;;;;20.11;43.03;98918.91;6191651;27;96256;-60
2022/12/31 12:28:25;;;;;;;;;4.75;4.75;;;;;20.61;41.30;98912.28;6160630;27;96688;-61
2022/12/31 12:31:29;;;;;;;;;5.00;5.00;;;;;20.80;41.10;98910.47;6167062;28;96855;-62
2022/12/31 12:34:34;;;;;;;;;6.00;6.00;;;;;20.89;40.40;98911.50;6163870;27;97080;-61
2022/12/31 12:37:39;;;;;;;;;6.00;6.00;;;;;21.01;40.49;98911.91;6161487;27;96210;-62
2022/12/31 12:40:53;;;;;;;;;5.40;5.40;;;;;21.13;39.97;98901.41;6164294;27;96526;-61
2022/12/31 12:44:05;;;;;;;;;6.00;6.00;;;;;21.20;39.89;98917.53;6162722;27;96292;-62
2022/12/31 12:47:15;;;;;;;;;5.00;5.00;;;;;21.10;39.59;98901.97;6164048;28;97162;-61
2022/12/31 12:50:23;;;;;;;;;6.20;6.20;;;;;21.02;40.13;98915.47;6164241;28;96869;-62
2022/12/31 12:53:37;;;;;;;;;7.00;7.00;;;;;20.69;40.62;98897.97;6167474;27;96828;-62
2022/12/31 12:56:49;;;;;;;;;6.50;6.50;;;;;20.38;41.50;98915.75;6160665;27;97074;-61
2022/12/31 13:00:15;;;;;;;;;6.80;6.80;;;;;20.24;41.64;98901.84;6164702;27;96770;-62
2022/12/31 13:03:47;;;;;;;;;5.00;5.00;;;;;19.97;42.51;98917.91;6173593;27;96799;-62
2022/12/31 13:07:24;;;;;;;;;5.60;4.60;;;;;19.60;43.30;98905.47;6190371;27;96564;-62
2022/12/31 13:10:49;;;;;;;;;6.00;5.00;;;;;19.53;43.62;98913.16;6190291;27;97187;-62
2022/12/31 13:14:03;;;;;;;;;5.80;4.80;;;;;19.34;43.75;98907.47;6196506;27;96302;-61
2022/12/31 13:17:29;;;;;;;;;7.00;7.00;;;;;19.13;44.73;98899.59;6174998;27;97497;-62
2022/12/31 13:20:41;;;;;;;;;6.00;5.00;;;;;19.11;44.45;98910.78;6185793;27;96265;-62
2022/12/31 13:23:52;;;;;;;;;6.00;5.00;;;;;18.83;44.89;98889.53;6183136;27;96582;-60
2022/12/31 13:27:06;;;;;;;;;6.60;6.20;;;;;19.00;45.13;98918.22;6183879;27;97097;-62
2022/12/31 13:30:25;;;;;;;;;7.40;7.00;;;;;18.84;45.63;98916.56;6185354;27;96827;-62
2022/12/31 13:33:33;;;;;;;;;6.00;5.40;;;;;18.62;46.28;98910.56;6190728;27;96864;-62
2022/12/31 13:36:41;;;;;;;;;6.00;5.80;;;;;18.65;46.27;98910.03;6183098;27;97155;-61
2022/12/31 13:39:47;;;;;;;;;4.60;4.20;;;;;18.48;46.69;98915.72;6186364;27;96605;-61
2022/12/31 13:42:57;;;;;;;;;5.00;4.00;;;;;18.43;46.59;98910.25;6173457;27;96912;-62
2022/12/31 13:46:10;;;;;;;;;5.00;5.00;;;;;18.43;46.89;98909.44;6188982;27;97132;-60
2022/12/31 13:49:18;;;;;;;;;5.80;4.80;;;;;18.28;47.38;98907.50;6201695;27;96775;-62
2022/12/31 13:52:30;;;;;;;;;6.00;6.00;;;;;18.34;47.34;98916.53;6275059;27;97195;-62
2022/12/31 13:55:40;;;;;;;;;7.00;7.00;;;;;18.30;47.30;98913.53;6253328;27;96748;-60
2022/12/31 13:58:51;;;;;;;;;6.00;5.50;;;;;18.26;47.66;98920.63;6227202;27;96084;-62
2022/12/31 14:02:03;;;;;;;;;5.00;4.25;;;;;18.13;48.07;98924.69;6196765;27;97241;-63
2022/12/31 14:05:17;;;;;;;;;6.00;5.20;;;;;18.04;48.29;98920.03;6182517;27;97184;-61
2022/12/31 14:08:21;;;;;;;;;6.00;6.00;;;;;18.06;48.67;98924.13;6216510;27;96512;-62
2022/12/31 14:11:41;;;;;;;;;6.00;6.00;;;;;17.97;48.95;98930.38;6168825;27;97945;-60
2022/12/31 14:15:02;;;;;;;;;5.50;5.50;;;;;18.03;48.60;98935.56;6199309;27;96394;-61
2022/12/31 14:18:13;;;;;;;;;5.60;5.60;;;;;17.95;48.87;98932.53;6170694;27;96515;-62
2022/12/31 14:21:24;;;;;;;;;6.00;6.00;;;;;17.91;49.13;98931.44;6169656;27;96906;-62
2022/12/31 14:24:40;;;;;;;;;5.40;5.00;;;;;18.00;49.12;98930.66;6170065;27;96660;-61
2022/12/31 14:27:46;;;;;;;;;7.00;7.00;;;;;18.03;48.75;98929.31;6170586;27;96921;-60
2022/12/31 14:30:58;;;;;;;;;8.00;7.00;;;;;18.11;48.96;98936.97;6195365;27;96821;-61
2022/12/31 14:34:13;;;;;;;;;7.00;6.00;;;;;18.09;48.93;98936.41;6185459;27;97597;-61
2022/12/31 14:37:24;;;;;;;;;7.00;6.50;;;;;18.15;48.67;98941.59;6197321;27;96492;-62
2022/12/31 14:40:40;;;;;;;;;7.00;7.00;;;;;18.07;49.20;98944.88;6218273;27;96754;-61
2022/12/31 14:43:58;;;;;;;;;7.00;6.50;;;;;18.02;49.27;98939.41;6265780;27;96281;-62
2022/12/31 14:47:21;;;;;;;;;6.00;6.00;;;;;17.87;49.52;98942.09;6200670;27;96590;-61
2022/12/31 14:50:28;;;;;;;;;6.00;5.25;;;;;17.76;49.69;98932.22;6185177;27;96207;-63
2022/12/31 14:53:31;;;;;;;;;6.20;6.00;;;;;17.58;49.16;98895.31;6187595;27;96345;-62
2022/12/31 14:56:42;;;;;;;;;6.20;6.00;;;;;17.76;49.96;98943.13;6167368;27;96522;-61
2022/12/31 14:59:54;;;;;;;;;8.80;7.00;;;;;17.69;49.89;98945.28;6179992;27;97005;-62
2022/12/31 15:03:01;;;;;;;;;6.00;5.25;;;;;17.58;49.93;98938.94;6179316;27;96500;-62
2022/12/31 15:06:30;;;;;;;;;7.25;7.00;;;;;17.64;50.03;98948.78;6188458;27;97606;-61
2022/12/31 15:09:56;;;;;;;;;8.00;8.00;;;;;17.57;50.32;98953.66;6175975;27;97306;-63